メインページ
METAR-TAF:

METAR-TAF

空港 :

チェンナイ, インド

チェンナイ国際空港

緯度: 13-00N, 経度: 080-11E, 海抜: 10m

現時点の気象観測

当レポートは6分前の13:00(UTC)に作成
北東の風 5kt
気温 28°C
湿度 79%
気圧 1011 hPa
視程: 4000m
高度2000ftの雲は散在している

METAR: VOMM 241300Z 04005KT 4000 BR SCT020 28/24 Q1011 NOSIG

時間: 18:36 (13:06 UTC)

予報

当レポートは2時間6分前の11:00(UTC)に作成
予報は24日の 12時(UTC)から 25日の 18時(UTC)まで有効
北東の風 10kt
視程: 5000m
高度2000ftの雲はほとんどない
高度10000ftの雲は散在している
煙霧
24日の 12時(UTC)から 24日の 18時(UTC)まで一時的に
高度1500ftの雲は散在している
高度2500ftの雲はほとんどない, 積乱雲.
高度8000ftの千切れ雲あり
24日の 17時(UTC)から 24日の 18時(UTC)まで徐々に
の風 kt
視程: 3000m
25日の 00時(UTC)から 25日の 03時(UTC)まで一時的に
視程: 1500m
高度1800ftの雲は散在している
25日の 03時(UTC)から 25日の 04時(UTC)まで徐々に
西の風 5kt
視程: 5000m
煙霧
25日の 06時(UTC)から 25日の 07時(UTC)まで徐々に
視程: 6000m

TAF: VOMM 241100Z 2412/2518 05010KT 5000 HZ FEW020 SCT100 TEMPO 2412/2418 SCT015 FEW025CB BKN080 BECMG 2417/2418 00000KT 3000 BR TEMPO 2500/2503 1500 BR SCT018 BECMG 2503/2504 27005KT 5000 HZ BECMG 2506/2507 6000

4,000以上の空港の気象観測と天気予報(METAR報とTAF報)

利用可能な観測所は地図上に黄色い丸と赤い丸で示す。

丸の上にカーソルを重ねると観測所名を参照できる。

次にクリックすると気象観測と天気予報を参照できる。

マップの切り替え:黒色「×」印の緑ボタンをクリックして拡大、「-」印の緑ボタンをクリックして縮小、緑色の三角印をクリックして隣りの地図に切り替え


METAR-TAF: